createdAt,value
2017-12-05T00:02:24.965Z,24.30
2017-12-05T00:04:53.325Z,22.77
2017-12-05T00:07:21.766Z,24.67
2017-12-05T00:09:50.171Z,23.77
2017-12-05T00:12:18.542Z,23.50
2017-12-05T00:14:47.973Z,24.85
2017-12-05T00:17:16.336Z,25.20
2017-12-05T00:19:44.699Z,24.27
2017-12-05T00:22:13.860Z,24.63
2017-12-05T00:24:42.226Z,21.10
2017-12-05T00:27:10.798Z,23.12
2017-12-05T00:29:39.172Z,23.00
2017-12-05T00:32:07.538Z,23.80
2017-12-05T00:34:35.944Z,23.77
2017-12-05T00:37:04.413Z,22.75
2017-12-05T00:39:32.903Z,23.70
2017-12-05T00:42:01.280Z,23.15
2017-12-05T00:44:29.647Z,22.80
2017-12-05T00:46:58.044Z,22.73
2017-12-05T00:49:26.410Z,21.30
2017-12-05T00:51:54.802Z,21.85
2017-12-05T00:54:23.167Z,22.40
2017-12-05T00:56:51.542Z,20.65
2017-12-05T00:59:19.935Z,22.62
2017-12-05T01:01:48.323Z,21.75
2017-12-05T01:04:17.177Z,23.62
2017-12-05T01:06:45.548Z,20.60
2017-12-05T01:09:13.918Z,21.85
2017-12-05T01:11:42.308Z,22.08
2017-12-05T01:14:10.672Z,21.20
2017-12-05T01:16:39.103Z,22.25
2017-12-05T01:19:07.482Z,21.17
2017-12-05T01:21:35.848Z,21.58
2017-12-05T01:24:04.286Z,20.37
2017-12-05T01:26:32.656Z,20.70
2017-12-05T01:29:01.865Z,21.65
2017-12-05T01:31:30.230Z,21.10
2017-12-05T01:33:59.365Z,22.77
2017-12-05T01:36:27.759Z,19.45
2017-12-05T01:38:56.126Z,20.08
2017-12-05T01:41:24.688Z,20.92
2017-12-05T01:43:53.052Z,22.45
2017-12-05T01:46:21.420Z,20.77
2017-12-05T01:48:50.603Z,20.42
2017-12-05T01:51:18.982Z,21.73
2017-12-05T01:53:48.369Z,22.00
2017-12-05T01:56:16.770Z,23.27
2017-12-05T01:58:45.933Z,19.85
2017-12-05T02:01:14.343Z,20.58
2017-12-05T02:03:43.480Z,20.70
2017-12-05T02:06:12.214Z,19.70
2017-12-05T02:08:40.596Z,22.33
2017-12-05T02:11:08.979Z,19.90
2017-12-05T02:13:37.364Z,21.62
2017-12-05T02:16:06.499Z,20.05
2017-12-05T02:18:34.991Z,19.75
2017-12-05T02:21:03.374Z,21.70
2017-12-05T02:23:31.739Z,24.98
2017-12-05T02:26:00.134Z,22.35
2017-12-05T02:28:28.802Z,20.70
2017-12-05T02:30:57.482Z,21.65
2017-12-05T02:33:25.862Z,23.40
2017-12-05T02:35:54.226Z,21.42
2017-12-05T02:38:22.621Z,20.60
2017-12-05T02:41:08.696Z,21.92
2017-12-05T02:43:37.275Z,23.42
2017-12-05T02:46:05.642Z,19.33
2017-12-05T02:48:34.776Z,19.25
2017-12-05T02:51:04.661Z,21.05
2017-12-05T02:53:33.006Z,21.70
2017-12-05T02:56:01.774Z,21.45
2017-12-05T02:58:30.147Z,21.77
2017-12-05T03:00:58.524Z,21.02
2017-12-05T03:03:27.270Z,18.80
2017-12-05T03:05:55.654Z,21.40
2017-12-05T03:08:24.330Z,19.67
2017-12-05T03:10:53.457Z,20.00
2017-12-05T03:13:21.829Z,19.42
2017-12-05T03:15:50.250Z,20.52
2017-12-05T03:18:18.630Z,19.55
2017-12-05T03:20:47.255Z,19.25
2017-12-05T03:23:15.629Z,21.25
2017-12-05T03:25:43.989Z,21.35
2017-12-05T03:28:13.146Z,21.45
2017-12-05T03:30:42.280Z,20.45
2017-12-05T03:33:11.446Z,19.80
2017-12-05T03:35:39.823Z,22.25
2017-12-05T03:38:08.198Z,18.62
2017-12-05T03:40:36.598Z,19.17
2017-12-05T03:43:04.963Z,18.23
2017-12-05T03:45:33.615Z,18.12
2017-12-05T03:48:02.147Z,19.33
2017-12-05T03:50:30.944Z,19.90
2017-12-05T03:53:00.120Z,17.75
2017-12-05T03:55:28.482Z,18.55
2017-12-05T03:57:57.046Z,17.02
2017-12-05T04:00:25.409Z,18.23
2017-12-05T04:02:53.779Z,19.00
2017-12-05T04:05:22.204Z,16.83
2017-12-05T04:07:50.569Z,18.30
2017-12-05T04:10:19.062Z,17.75
2017-12-05T04:12:47.886Z,17.77
2017-12-05T04:15:17.506Z,19.45
2017-12-05T04:17:47.070Z,17.65
2017-12-05T04:20:15.782Z,19.98
2017-12-05T04:22:45.555Z,17.90
2017-12-05T04:25:14.274Z,16.35
2017-12-05T04:27:43.035Z,18.48
2017-12-05T04:30:11.794Z,16.55
2017-12-05T04:32:40.615Z,17.20
2017-12-05T04:35:09.013Z,17.90
2017-12-05T04:37:37.380Z,15.85
2017-12-05T04:40:05.753Z,15.57
2017-12-05T04:42:34.153Z,18.17
2017-12-05T04:45:02.520Z,18.35
2017-12-05T04:47:31.062Z,17.33
2017-12-05T04:49:59.426Z,19.30
2017-12-05T04:52:27.819Z,18.75
2017-12-05T04:54:56.219Z,17.92
2017-12-05T04:57:24.599Z,17.85
2017-12-05T04:59:53.102Z,18.45
2017-12-05T05:02:21.487Z,21.17
2017-12-05T05:04:50.278Z,21.77
2017-12-05T05:07:19.781Z,19.40
2017-12-05T05:09:48.182Z,19.10
2017-12-05T05:12:16.602Z,19.65
2017-12-05T05:14:44.965Z,19.20
2017-12-05T05:17:13.401Z,19.58
2017-12-05T05:19:42.602Z,18.08
2017-12-05T05:22:11.788Z,19.55
2017-12-05T05:24:40.155Z,19.70
2017-12-05T05:27:08.574Z,19.23
2017-12-05T05:29:36.950Z,20.15
2017-12-05T05:32:05.311Z,18.20
2017-12-05T05:34:34.503Z,18.70
2017-12-05T05:37:02.866Z,19.70
2017-12-05T05:39:31.421Z,20.42
2017-12-05T05:41:59.820Z,19.02
2017-12-05T05:44:28.202Z,20.35
2017-12-05T05:46:56.567Z,18.75
2017-12-05T05:49:24.977Z,18.62
2017-12-05T05:51:54.126Z,19.40
2017-12-05T05:54:22.491Z,18.83
2017-12-05T05:56:50.894Z,16.65
2017-12-05T05:59:19.276Z,17.83
2017-12-05T06:01:47.643Z,22.70
2017-12-05T06:04:16.037Z,20.80
2017-12-05T06:06:44.420Z,20.55
2017-12-05T06:09:12.790Z,17.52
2017-12-05T06:11:41.190Z,15.95
2017-12-05T06:14:09.566Z,18.60
2017-12-05T06:16:37.938Z,19.23
2017-12-05T06:19:06.352Z,19.58
2017-12-05T06:21:35.492Z,19.40
2017-12-05T06:24:03.853Z,18.65
2017-12-05T06:26:32.257Z,19.83
2017-12-05T06:29:00.632Z,19.25
2017-12-05T06:31:29.015Z,17.70
2017-12-05T06:33:58.118Z,18.95
2017-12-05T06:36:26.583Z,21.40
2017-12-05T06:38:54.970Z,17.45
2017-12-05T06:41:23.364Z,20.08
2017-12-05T06:43:51.727Z,18.12
2017-12-05T06:46:20.159Z,18.33
2017-12-05T06:48:48.532Z,19.00
2017-12-05T06:51:17.685Z,20.88
2017-12-05T06:53:46.078Z,19.05
2017-12-05T06:56:14.445Z,21.10
2017-12-05T06:58:42.868Z,19.98
2017-12-05T07:01:11.368Z,20.17
2017-12-05T07:03:39.774Z,20.42
2017-12-05T07:06:09.105Z,19.20
2017-12-05T07:08:37.484Z,19.37
2017-12-05T07:11:05.877Z,19.45
2017-12-05T07:13:35.034Z,18.65
2017-12-05T07:16:03.418Z,18.98
2017-12-05T07:18:31.806Z,19.10
2017-12-05T07:21:00.263Z,19.48
2017-12-05T07:23:28.737Z,19.40
2017-12-05T07:25:57.114Z,20.60
2017-12-05T07:28:25.500Z,20.00
2017-12-05T07:30:53.902Z,20.42
2017-12-05T07:33:22.286Z,22.33
2017-12-05T07:35:52.706Z,18.62
2017-12-05T07:38:22.825Z,19.48
2017-12-05T07:40:52.094Z,18.55
2017-12-05T07:43:23.631Z,19.37
2017-12-05T07:45:53.468Z,18.98
2017-12-05T07:48:21.887Z,18.20
2017-12-05T07:54:01.113Z,19.23
2017-12-05T07:56:29.943Z,18.08
2017-12-05T07:58:58.342Z,19.15
2017-12-05T08:01:26.711Z,17.80
2017-12-05T08:03:55.106Z,18.85
2017-12-05T08:06:23.478Z,18.45
2017-12-05T08:11:27.507Z,17.15
2017-12-05T08:13:55.944Z,17.80
2017-12-05T08:16:25.100Z,17.48
2017-12-05T08:18:53.484Z,16.95
2017-12-05T08:21:21.883Z,17.80
2017-12-05T08:23:50.308Z,15.65
2017-12-05T08:26:19.235Z,17.52
2017-12-05T08:28:47.612Z,16.10
2017-12-05T08:31:15.992Z,15.63
2017-12-05T08:33:44.387Z,15.35
2017-12-05T08:36:12.776Z,14.95
2017-12-05T08:38:41.414Z,14.35
2017-12-05T08:41:10.311Z,16.48
2017-12-05T08:43:38.691Z,15.75
2017-12-05T08:46:07.121Z,16.00
2017-12-05T08:48:36.268Z,14.87
2017-12-05T08:51:04.951Z,12.98
2017-12-05T08:53:33.321Z,13.13
2017-12-05T08:56:02.694Z,14.10
2017-12-05T08:58:31.865Z,16.58
2017-12-05T09:01:00.239Z,15.95
2017-12-05T09:03:28.730Z,14.73
2017-12-05T09:05:57.132Z,15.50
2017-12-05T09:08:25.493Z,15.35
2017-12-05T09:10:54.671Z,15.63
2017-12-05T09:13:23.051Z,15.10
2017-12-05T09:15:51.469Z,15.00
2017-12-05T09:18:19.836Z,12.88
2017-12-05T09:20:48.214Z,16.17
2017-12-05T09:23:17.378Z,15.25
2017-12-05T09:25:45.759Z,14.30
2017-12-05T09:28:14.355Z,13.93
2017-12-05T09:30:42.727Z,13.23
2017-12-05T09:33:11.117Z,15.73
2017-12-05T09:35:40.282Z,16.25
2017-12-05T09:38:08.665Z,15.05
2017-12-05T09:40:37.435Z,14.32
2017-12-05T09:43:05.802Z,14.15
2017-12-05T09:45:34.179Z,14.90
2017-12-05T09:48:02.582Z,13.68
2017-12-05T09:50:30.957Z,15.20
2017-12-05T09:52:59.668Z,15.52
2017-12-05T09:55:28.044Z,13.60
2017-12-05T09:57:56.443Z,15.50
2017-12-05T10:00:25.645Z,14.27
2017-12-05T10:02:54.794Z,14.63
2017-12-05T10:05:23.495Z,14.50
2017-12-05T10:07:51.871Z,14.43
2017-12-05T10:10:20.247Z,13.88
2017-12-05T10:12:48.647Z,15.60
2017-12-05T10:15:17.035Z,16.17
2017-12-05T10:17:45.470Z,13.60
2017-12-05T10:20:13.850Z,15.52
2017-12-05T10:22:42.223Z,16.20
2017-12-05T10:25:10.625Z,14.18
2017-12-05T10:27:39.002Z,15.40
2017-12-05T10:30:07.675Z,15.23
2017-12-05T10:32:36.049Z,14.40
2017-12-05T10:35:04.460Z,14.85
2017-12-05T10:37:32.861Z,15.30
2017-12-05T10:40:02.003Z,13.25
2017-12-05T10:42:30.435Z,15.38
2017-12-05T10:44:59.585Z,14.40
2017-12-05T10:47:27.967Z,13.60
2017-12-05T10:49:56.386Z,13.80
2017-12-05T10:52:25.541Z,14.00
2017-12-05T10:54:54.009Z,13.80
2017-12-05T10:57:22.374Z,14.75
2017-12-05T10:59:50.757Z,11.98
2017-12-05T11:02:19.162Z,14.18
2017-12-05T11:04:47.550Z,14.65
2017-12-05T11:07:16.045Z,13.55
2017-12-05T11:09:45.199Z,14.73
2017-12-05T11:12:13.582Z,13.20
2017-12-05T11:14:41.999Z,12.23
2017-12-05T11:17:11.145Z,13.07
2017-12-05T11:19:39.646Z,14.75
2017-12-05T11:22:08.046Z,13.68
2017-12-05T11:24:36.429Z,15.15
2017-12-05T11:27:04.839Z,14.30
2017-12-05T11:29:33.225Z,13.07
2017-12-05T11:32:01.591Z,13.02
2017-12-05T11:34:29.999Z,11.80
2017-12-05T11:36:58.372Z,12.65
2017-12-05T11:39:26.759Z,12.65
2017-12-05T11:41:55.158Z,12.13
2017-12-05T11:44:23.525Z,11.88
2017-12-05T11:46:51.942Z,12.05
2017-12-05T11:49:20.331Z,11.38
2017-12-05T11:51:49.607Z,12.40
2017-12-05T11:54:17.994Z,12.02
2017-12-05T11:56:46.366Z,10.57
2017-12-05T11:59:14.750Z,12.60
2017-12-05T12:01:43.133Z,13.13
2017-12-05T12:04:12.482Z,12.98
2017-12-05T12:06:40.862Z,11.80
2017-12-05T12:09:09.234Z,12.70
2017-12-05T12:11:37.627Z,12.77
2017-12-05T12:14:06.003Z,12.23
2017-12-05T12:16:34.580Z,13.15
2017-12-05T12:19:02.946Z,12.93
2017-12-05T12:21:31.340Z,13.62
2017-12-05T12:23:59.737Z,12.57
2017-12-05T12:26:28.129Z,13.48
2017-12-05T12:28:56.547Z,13.98
2017-12-05T12:31:24.913Z,13.18
2017-12-05T12:33:55.351Z,13.73
2017-12-05T12:36:23.967Z,12.25
2017-12-05T12:38:52.329Z,13.13
2017-12-05T12:41:20.918Z,12.77
2017-12-05T12:43:49.298Z,12.00
2017-12-05T12:46:17.687Z,12.45
2017-12-05T12:48:46.090Z,12.55
2017-12-05T12:51:14.463Z,12.13
2017-12-05T12:53:42.879Z,11.70
2017-12-05T12:56:12.031Z,12.13
2017-12-05T12:58:40.478Z,10.63
2017-12-05T13:01:08.863Z,11.75
2017-12-05T13:03:37.227Z,12.80
2017-12-05T13:06:05.742Z,11.73
2017-12-05T13:08:34.105Z,12.68
2017-12-05T13:11:02.482Z,12.15
2017-12-05T13:13:30.879Z,12.37
2017-12-05T13:15:59.238Z,13.32
2017-12-05T13:18:28.034Z,12.07
2017-12-05T13:20:56.398Z,11.70
2017-12-05T13:23:24.782Z,13.27
2017-12-05T13:25:53.191Z,11.63
2017-12-05T13:28:21.577Z,12.95
2017-12-05T13:30:50.354Z,13.25
2017-12-05T13:33:18.719Z,12.88
2017-12-05T13:35:47.082Z,11.85
2017-12-05T13:38:15.472Z,11.73
2017-12-05T13:40:43.838Z,12.13
2017-12-05T13:43:12.268Z,11.90
2017-12-05T13:45:40.667Z,11.63
2017-12-05T13:48:09.804Z,11.52
2017-12-05T13:50:38.198Z,12.80
2017-12-05T13:53:06.615Z,12.63
2017-12-05T13:55:35.158Z,11.57
2017-12-05T13:58:03.526Z,12.55
2017-12-05T14:00:31.909Z,11.27
2017-12-05T14:03:00.314Z,10.40
2017-12-05T14:05:28.706Z,12.77
2017-12-05T14:07:57.395Z,11.80
2017-12-05T14:10:26.554Z,11.73
2017-12-05T14:12:54.985Z,10.75
2017-12-05T14:15:23.354Z,12.10
2017-12-05T14:17:52.497Z,11.30
2017-12-05T14:20:21.098Z,12.43
2017-12-05T14:22:49.839Z,10.95
2017-12-05T14:25:18.230Z,11.48
2017-12-05T14:27:46.715Z,10.45
2017-12-05T14:30:15.164Z,11.75
2017-12-05T14:32:44.428Z,11.20
2017-12-05T14:35:12.810Z,11.02
2017-12-05T14:37:41.220Z,10.90
2017-12-05T14:40:10.391Z,12.15
2017-12-05T14:42:38.758Z,12.02
2017-12-05T14:45:07.202Z,11.05
2017-12-05T14:47:35.594Z,11.57
2017-12-05T14:50:04.010Z,11.85
2017-12-05T14:52:32.450Z,12.43
2017-12-05T14:55:00.832Z,11.25
2017-12-05T14:57:29.314Z,12.30
2017-12-05T14:59:57.690Z,11.80
2017-12-05T15:02:26.082Z,12.57
2017-12-05T15:04:54.490Z,10.82
2017-12-05T15:07:22.868Z,11.50
2017-12-05T15:09:51.375Z,10.90
2017-12-05T15:12:19.754Z,11.88
2017-12-05T15:14:48.117Z,11.77
2017-12-05T15:17:17.512Z,11.40
2017-12-05T15:19:45.886Z,12.80
2017-12-05T15:22:14.435Z,11.93
2017-12-05T15:24:42.806Z,12.55
2017-12-05T15:27:11.236Z,12.77
2017-12-05T15:29:40.432Z,13.13
2017-12-05T15:32:09.617Z,12.10
2017-12-05T15:34:38.034Z,12.55
2017-12-05T15:37:06.427Z,13.23
2017-12-05T15:39:34.799Z,12.95
2017-12-05T15:42:03.195Z,12.70
2017-12-05T15:44:31.571Z,13.70
2017-12-05T15:46:59.988Z,12.90
2017-12-05T15:49:28.405Z,13.02
2017-12-05T15:51:56.774Z,11.45
2017-12-05T15:54:25.940Z,12.43
2017-12-05T15:56:54.310Z,14.02
2017-12-05T15:59:24.358Z,13.65
2017-12-05T16:01:52.847Z,13.20
2017-12-05T16:04:21.339Z,13.30
2017-12-05T16:07:03.581Z,13.25
2017-12-05T16:09:56.351Z,13.30
2017-12-05T16:12:24.951Z,12.00
2017-12-05T16:14:54.085Z,12.50
2017-12-05T16:17:22.484Z,13.15
2017-12-05T16:19:50.910Z,12.02
2017-12-05T16:22:19.306Z,12.90
2017-12-05T16:24:47.839Z,13.80
2017-12-05T16:27:16.219Z,12.60
2017-12-05T16:29:45.387Z,13.23
2017-12-05T16:32:13.814Z,14.07
2017-12-05T16:34:42.191Z,12.52
2017-12-05T16:37:10.683Z,13.20
2017-12-05T16:39:39.821Z,12.70
2017-12-05T16:42:08.198Z,13.55
2017-12-05T16:44:36.607Z,12.60
2017-12-05T16:47:04.995Z,12.40
2017-12-05T16:49:33.427Z,13.57
2017-12-05T16:52:01.802Z,13.00
2017-12-05T16:54:30.190Z,14.82
2017-12-05T16:56:58.583Z,14.50
2017-12-05T16:59:27.110Z,11.77
2017-12-05T17:01:55.682Z,12.63
2017-12-05T17:04:24.046Z,12.95
2017-12-05T17:06:52.426Z,12.77
2017-12-05T17:09:20.833Z,12.90
2017-12-05T17:11:49.483Z,13.50
2017-12-05T17:14:18.712Z,12.13
2017-12-05T17:16:47.286Z,14.70
2017-12-05T17:19:15.683Z,12.18
2017-12-05T17:21:44.853Z,14.57
2017-12-05T17:24:13.998Z,13.40
2017-12-05T17:26:42.455Z,12.13
2017-12-05T17:29:11.660Z,13.80
2017-12-05T17:31:40.737Z,14.70
2017-12-05T17:34:09.917Z,13.20
2017-12-05T17:36:38.306Z,14.30
2017-12-05T17:39:06.759Z,14.90
2017-12-05T17:41:35.135Z,14.30
2017-12-05T17:44:03.525Z,14.25
2017-12-05T17:46:32.070Z,15.38
2017-12-05T17:49:00.472Z,13.62
2017-12-05T17:51:28.876Z,13.75
2017-12-05T17:53:57.298Z,13.80
2017-12-05T17:56:25.700Z,13.30
2017-12-05T17:58:55.078Z,14.55
2017-12-05T18:01:23.588Z,13.70
2017-12-05T18:03:52.179Z,15.30
2017-12-05T18:06:21.387Z,13.93
2017-12-05T18:08:49.886Z,14.77
2017-12-05T18:11:18.407Z,15.85
2017-12-05T18:13:46.791Z,15.20
2017-12-05T18:16:15.172Z,16.20
2017-12-05T18:18:43.575Z,14.38
2017-12-05T18:21:11.957Z,15.30
2017-12-05T18:23:40.741Z,14.87
2017-12-05T18:26:09.106Z,22.60
2017-12-05T18:28:37.475Z,26.25
2017-12-05T18:31:05.874Z,34.53
2017-12-05T18:33:34.248Z,33.80
2017-12-05T18:36:02.847Z,14.82
2017-12-05T18:38:31.524Z,14.50
2017-12-05T18:40:59.938Z,14.15
2017-12-05T18:43:29.405Z,16.42
2017-12-05T18:45:58.081Z,12.10
2017-12-05T18:48:27.307Z,10.88
2017-12-05T18:51:08.439Z,10.13
2017-12-05T18:53:38.029Z,12.70
2017-12-05T18:56:12.478Z,16.90
2017-12-05T18:58:42.077Z,33.53
2017-12-05T19:01:10.941Z,14.32
2017-12-05T19:03:40.502Z,14.30
2017-12-05T19:06:09.483Z,13.88
2017-12-05T19:08:38.241Z,14.50
2017-12-05T19:11:07.517Z,13.68
2017-12-05T19:13:36.383Z,13.75
2017-12-05T19:16:06.994Z,12.98
2017-12-05T19:18:37.506Z,13.62
2017-12-05T19:21:06.470Z,15.00
2017-12-05T19:23:35.554Z,12.07
2017-12-05T19:26:04.310Z,12.30
2017-12-05T19:28:34.120Z,14.32
2017-12-05T19:31:04.533Z,14.13
2017-12-05T19:33:33.481Z,13.20
2017-12-05T19:36:02.190Z,13.70
2017-12-05T19:38:31.137Z,13.90
2017-12-05T19:41:00.200Z,13.90
2017-12-05T19:43:29.265Z,14.45
2017-12-05T19:45:58.682Z,11.75
2017-12-05T19:48:27.684Z,12.88
2017-12-05T19:50:56.610Z,13.90
2017-12-05T19:53:25.700Z,13.02
2017-12-05T19:55:54.581Z,13.70
2017-12-05T19:58:23.691Z,16.45
2017-12-05T20:00:52.750Z,14.13
2017-12-05T20:03:21.366Z,13.10
2017-12-05T20:05:50.348Z,13.40
2017-12-05T20:08:20.032Z,17.33
2017-12-05T20:10:49.242Z,20.08
2017-12-05T20:13:18.128Z,19.23
2017-12-05T20:15:48.062Z,18.25
2017-12-05T20:18:17.247Z,17.27
2017-12-05T20:20:46.331Z,16.83
2017-12-05T20:23:16.701Z,19.00
2017-12-05T20:25:46.328Z,20.15
2017-12-05T20:28:16.247Z,20.45
2017-12-05T20:30:44.806Z,19.20
2017-12-05T20:33:14.018Z,21.62
2017-12-05T20:35:42.430Z,22.13
2017-12-05T20:38:11.121Z,18.67
2017-12-05T20:40:40.123Z,20.08
2017-12-05T20:43:08.804Z,23.00
2017-12-05T20:45:37.695Z,21.98
2017-12-05T20:48:07.591Z,21.12
2017-12-05T20:50:36.306Z,20.75
2017-12-05T20:53:06.190Z,20.48
2017-12-05T20:55:35.058Z,19.75
2017-12-05T20:58:03.968Z,19.10
2017-12-05T21:00:32.850Z,21.65
2017-12-05T21:03:01.768Z,19.20
2017-12-05T21:05:30.740Z,22.05
2017-12-05T21:07:59.574Z,23.75
2017-12-05T21:10:29.125Z,20.40
2017-12-05T21:12:58.772Z,22.05
2017-12-05T21:15:27.637Z,22.25
2017-12-05T21:17:56.523Z,21.75
2017-12-05T21:20:25.262Z,20.48
2017-12-05T21:22:54.104Z,20.70
2017-12-05T21:25:22.754Z,21.30
2017-12-05T21:27:52.270Z,22.58
2017-12-05T21:30:20.998Z,21.27
2017-12-05T21:32:50.171Z,20.15
2017-12-05T21:35:18.941Z,21.87
2017-12-05T21:37:47.598Z,18.50
2017-12-05T21:40:16.154Z,19.80
2017-12-05T21:42:44.655Z,20.10
2017-12-05T21:45:13.054Z,19.25
2017-12-05T21:47:42.196Z,19.40
2017-12-05T21:50:10.591Z,22.87
2017-12-05T21:52:38.988Z,22.35
2017-12-05T21:55:07.566Z,20.65
2017-12-05T21:57:36.043Z,22.73
2017-12-05T22:00:04.513Z,20.20
2017-12-05T22:02:33.908Z,20.30
2017-12-05T22:05:02.286Z,21.60
2017-12-05T22:07:31.785Z,20.60
2017-12-05T22:10:00.201Z,21.80
2017-12-05T22:12:28.587Z,21.40
2017-12-05T22:14:57.168Z,20.27
2017-12-05T22:17:25.623Z,20.70
2017-12-05T22:19:54.128Z,19.00
2017-12-05T22:22:22.599Z,20.52
2017-12-05T22:24:50.971Z,21.23
2017-12-05T22:27:19.403Z,18.52
2017-12-05T22:29:47.912Z,19.20
2017-12-05T22:32:16.454Z,20.77
2017-12-05T22:34:44.880Z,21.00
2017-12-05T22:37:13.562Z,21.25
2017-12-05T22:39:42.054Z,20.17
2017-12-05T22:42:10.440Z,20.37
2017-12-05T22:44:39.280Z,21.02
2017-12-05T22:47:07.658Z,17.40
2017-12-05T22:49:36.022Z,21.10
2017-12-05T22:52:04.406Z,19.85
2017-12-05T22:54:32.800Z,21.25
2017-12-05T22:57:01.707Z,20.35
2017-12-05T22:59:30.087Z,19.33
2017-12-05T23:01:58.484Z,20.45
2017-12-05T23:04:26.879Z,19.33
2017-12-05T23:06:55.253Z,20.45
2017-12-05T23:09:23.997Z,20.52
2017-12-05T23:11:52.362Z,17.90
2017-12-05T23:14:21.088Z,18.20
2017-12-05T23:16:49.477Z,20.25
2017-12-05T23:19:17.837Z,20.23
2017-12-05T23:21:46.246Z,19.10
2017-12-05T23:24:14.618Z,18.80
2017-12-05T23:26:42.990Z,18.55
2017-12-05T23:29:11.373Z,20.12
2017-12-05T23:31:39.754Z,17.67
2017-12-05T23:34:08.326Z,18.17
2017-12-05T23:36:36.728Z,18.55
2017-12-05T23:39:05.905Z,19.05
2017-12-05T23:41:34.296Z,19.92
2017-12-05T23:44:02.663Z,20.37
2017-12-05T23:46:31.168Z,18.87
2017-12-05T23:49:00.307Z,18.27
2017-12-05T23:51:28.671Z,19.10
2017-12-05T23:53:57.105Z,18.70
2017-12-05T23:56:25.477Z,17.67
2017-12-05T23:58:53.848Z,18.17
